Time;durP1;ratioP1;P1;durP2;ratioP2;P2;SDS_P1;SDS_P2;PMS_P1;PMS_P2;Temp;Humidity;BMP_temperature;BMP_pressure;BME280_temperature;BME280_humidity;BME280_pressure;Samples;Min_cycle;Max_cycle;Signal;HPM_P1;HPM_P2
2022/08/30 00:01:32;0.00;0.00;0.62;0.00;0.00;0.62;2.17;1.00;;;27.20;31.50;;;;;;2241188;62;20434;-65
2022/08/30 00:04:17;0.00;0.00;0.62;0.00;0.00;0.62;2.30;1.20;;;27.20;31.50;;;;;;2238244;62;20418;-65
2022/08/30 00:07:02;0.00;0.00;0.62;0.00;0.00;0.62;1.50;0.70;;;27.20;31.60;;;;;;2237322;62;20436;-64
2022/08/30 00:09:47;0.00;0.00;0.62;0.00;0.00;0.62;2.60;0.90;;;27.20;31.50;;;;;;2237780;62;20805;-65
2022/08/30 00:12:32;0.00;0.00;0.62;0.00;0.00;0.62;1.50;0.80;;;27.20;32.20;;;;;;2238055;62;20364;-64
2022/08/30 00:15:19;0.00;0.00;0.62;0.00;0.00;0.62;2.37;0.97;;;27.20;31.50;;;;;;2241741;62;20659;-63
2022/08/30 00:18:05;0.00;0.00;0.62;0.00;0.00;0.62;2.33;1.33;;;27.20;31.60;;;;;;2242461;62;20577;-64
2022/08/30 00:20:51;0.00;0.00;0.62;0.00;0.00;0.62;1.80;1.00;;;27.20;31.50;;;;;;2242012;62;20386;-64
2022/08/30 00:23:37;0.00;0.00;0.62;0.00;0.00;0.62;2.23;0.90;;;27.20;31.50;;;;;;2243877;61;20421;-63
2022/08/30 00:26:22;0.00;0.00;0.62;0.00;0.00;0.62;1.87;0.90;;;27.20;31.50;;;;;;2245884;61;20357;-63
2022/08/30 00:29:07;0.00;0.00;0.62;0.00;0.00;0.62;1.77;0.90;;;27.20;31.50;;;;;;2245989;61;20409;-63
2022/08/30 00:31:53;0.00;0.00;0.62;0.00;0.00;0.62;2.67;0.93;;;27.20;31.50;;;;;;2246332;61;20393;-63
2022/08/30 00:34:38;0.00;0.00;0.62;0.00;0.00;0.62;4.40;1.23;;;27.20;31.50;;;;;;2245917;61;20397;-63
2022/08/30 00:37:23;0.00;0.00;0.62;0.00;0.00;0.62;1.60;0.80;;;27.20;31.50;;;;;;2245715;61;20745;-63
2022/08/30 00:40:11;0.00;0.00;0.62;0.00;0.00;0.62;1.70;1.10;;;27.20;31.50;;;;;;2246326;61;20362;-63
2022/08/30 00:42:58;0.00;0.00;0.62;0.00;0.00;0.62;1.43;0.90;;;27.20;31.60;;;;;;2244773;61;20584;-63
2022/08/30 00:45:43;0.00;0.00;0.62;0.00;0.00;0.62;1.73;1.00;;;27.20;31.50;;;;;;2241668;62;20714;-64
2022/08/30 00:48:30;0.00;0.00;0.62;0.00;0.00;0.62;1.60;1.03;;;27.20;31.50;;;;;;2238530;62;20375;-63
2022/08/30 00:51:17;0.00;0.00;0.62;0.00;0.00;0.62;1.60;1.10;;;27.20;31.50;;;;;;2237954;62;20367;-63
2022/08/30 00:54:03;0.00;0.00;0.62;0.00;0.00;0.62;1.60;1.03;;;27.20;31.60;;;;;;2241085;62;20390;-64
2022/08/30 00:56:48;0.00;0.00;0.62;0.00;0.00;0.62;1.67;1.00;;;27.20;31.60;;;;;;2242170;62;20406;-64
2022/08/30 00:59:33;0.00;0.00;0.62;0.00;0.00;0.62;2.30;1.13;;;27.20;31.60;;;;;;2241683;62;20364;-63
2022/08/30 01:02:21;0.00;0.00;0.62;0.00;0.00;0.62;1.70;1.00;;;27.20;31.50;;;;;;2242122;61;20366;-64
2022/08/30 01:05:11;0.00;0.00;0.62;0.00;0.00;0.62;1.40;0.83;;;27.20;31.60;;;;;;2246007;61;20385;-63
2022/08/30 01:07:56;0.00;0.00;0.62;0.00;0.00;0.62;1.87;1.20;;;27.20;31.60;;;;;;2245611;61;20386;-64
2022/08/30 01:10:42;0.00;0.00;0.62;0.00;0.00;0.62;4.67;1.37;;;27.20;31.60;;;;;;2245739;61;20683;-64
2022/08/30 01:13:27;0.00;0.00;0.62;0.00;0.00;0.62;1.70;1.00;;;27.20;31.50;;;;;;2245784;61;20417;-63
2022/08/30 01:16:13;0.00;0.00;0.62;0.00;0.00;0.62;2.80;0.97;;;27.20;31.50;;;;;;2245980;61;20357;-63
2022/08/30 01:18:59;0.00;0.00;0.62;0.00;0.00;0.62;2.50;1.13;;;27.20;31.50;;;;;;2246102;61;20381;-64
2022/08/30 01:21:49;0.00;0.00;0.62;0.00;0.00;0.62;1.73;1.00;;;27.10;31.40;;;;;;2245485;61;20373;-64
2022/08/30 01:24:36;0.00;0.00;0.62;0.00;0.00;0.62;1.60;0.90;;;27.10;31.40;;;;;;2242207;62;20399;-63
2022/08/30 01:27:22;0.00;0.00;0.62;0.00;0.00;0.62;1.50;1.00;;;27.10;31.50;;;;;;2242179;62;20445;-63
2022/08/30 01:30:09;0.00;0.00;0.62;0.00;0.00;0.62;1.60;1.10;;;27.10;31.40;;;;;;2241388;62;20386;-63
2022/08/30 01:32:59;0.00;0.00;0.62;0.00;0.00;0.62;1.40;0.90;;;27.10;31.40;;;;;;2242074;61;20779;-63
2022/08/30 01:35:52;0.00;0.00;0.62;0.00;0.00;0.62;2.00;1.13;;;27.10;31.40;;;;;;2241511;62;20358;-64
2022/08/30 01:38:44;0.00;0.00;0.62;0.00;0.00;0.62;1.50;0.90;;;27.00;31.40;;;;;;2242146;62;20479;-63
2022/08/30 01:41:33;0.00;0.00;0.62;0.00;0.00;0.62;1.50;1.03;;;27.00;31.40;;;;;;2242069;62;20734;-64
2022/08/30 01:44:19;0.00;0.00;0.62;0.00;0.00;0.62;2.27;0.97;;;27.00;31.40;;;;;;2241305;62;20942;-63
2022/08/30 01:47:04;0.00;0.00;0.62;0.00;0.00;0.62;1.70;1.03;;;27.00;31.40;;;;;;2242238;62;20464;-64
2022/08/30 01:49:50;0.00;0.00;0.62;0.00;0.00;0.62;1.80;1.03;;;27.00;31.40;;;;;;2241788;62;20390;-63
2022/08/30 01:52:35;0.00;0.00;0.62;0.00;0.00;0.62;1.73;1.10;;;27.00;31.40;;;;;;2241284;62;20435;-62
2022/08/30 01:55:20;0.00;0.00;0.62;0.00;0.00;0.62;1.50;1.00;;;27.00;31.40;;;;;;2243333;62;20442;-64
2022/08/30 01:58:07;0.00;0.00;0.62;0.00;0.00;0.62;1.80;1.10;;;27.00;31.40;;;;;;2237406;62;20711;-64
2022/08/30 02:00:51;0.00;0.00;0.62;0.00;0.00;0.62;1.57;0.93;;;26.90;31.30;;;;;;2238166;62;20364;-63
2022/08/30 02:03:37;0.00;0.00;0.62;0.00;0.00;0.62;1.70;0.90;;;26.90;31.30;;;;;;2237702;61;20459;-62
2022/08/30 02:06:22;0.00;0.00;0.62;0.00;0.00;0.62;2.00;1.13;;;26.90;31.30;;;;;;2237455;62;20702;-63
2022/08/30 02:09:07;0.00;0.00;0.62;0.00;0.00;0.62;1.70;1.20;;;26.90;31.30;;;;;;2238073;62;20380;-63
2022/08/30 02:11:52;0.00;0.00;0.62;0.00;0.00;0.62;2.13;1.20;;;26.90;31.30;;;;;;2237747;62;20359;-62
2022/08/30 02:14:38;0.00;0.00;0.62;0.00;0.00;0.62;1.80;1.10;;;26.80;31.30;;;;;;2244961;61;20647;-63
2022/08/30 02:17:23;0.00;0.00;0.62;0.00;0.00;0.62;2.17;1.40;;;26.90;31.30;;;;;;2246023;61;20833;-64
2022/08/30 02:20:10;0.00;0.00;0.62;0.00;0.00;0.62;1.63;1.10;;;26.80;31.20;;;;;;2245308;61;20389;-64
2022/08/30 02:22:54;0.00;0.00;0.62;0.00;0.00;0.62;2.90;0.90;;;26.80;31.30;;;;;;2244766;61;20612;-64
2022/08/30 02:25:40;0.00;0.00;0.62;0.00;0.00;0.62;1.50;0.97;;;26.80;31.30;;;;;;2241764;62;20366;-63
2022/08/30 02:28:25;0.00;0.00;0.62;0.00;0.00;0.62;1.47;0.90;;;26.80;31.30;;;;;;2243641;61;20738;-64
2022/08/30 02:31:12;0.00;0.00;0.62;0.00;0.00;0.62;2.40;0.90;;;26.80;31.40;;;;;;2242016;62;20423;-62
2022/08/30 02:33:56;0.00;0.00;0.62;0.00;0.00;0.62;2.07;1.00;;;26.80;31.50;;;;;;2238801;61;20395;-63
2022/08/30 02:36:41;0.00;0.00;0.62;0.00;0.00;0.62;3.17;1.13;;;26.70;31.50;;;;;;2237330;62;20352;-63
2022/08/30 02:39:26;0.00;0.00;0.62;0.00;0.00;0.62;1.63;1.00;;;26.70;31.50;;;;;;2238013;62;20627;-64
2022/08/30 02:42:11;0.00;0.00;0.62;0.00;0.00;0.62;1.87;1.20;;;26.70;31.50;;;;;;2237647;62;20375;-63
2022/08/30 02:44:56;0.00;0.00;0.62;0.00;0.00;0.62;1.50;1.00;;;26.70;31.50;;;;;;2468478;54;20379;-63
2022/08/30 02:47:44;0.00;0.00;0.62;0.00;0.00;0.62;2.33;1.10;;;26.70;31.60;;;;;;2240542;62;20366;-62
2022/08/30 02:50:29;0.00;0.00;0.62;0.00;0.00;0.62;1.40;1.00;;;26.70;31.60;;;;;;2241147;62;20725;-63
2022/08/30 02:53:15;0.00;0.00;0.62;0.00;0.00;0.62;1.50;1.10;;;26.60;31.60;;;;;;2239928;61;20371;-62
2022/08/30 02:56:00;0.00;0.00;0.62;0.00;0.00;0.62;1.60;1.00;;;26.60;31.60;;;;;;2237745;62;20436;-63
2022/08/30 02:58:45;0.00;0.00;0.62;0.00;0.00;0.62;2.20;1.40;;;26.60;31.60;;;;;;2237463;62;20396;-63
2022/08/30 03:01:34;0.00;0.00;0.62;0.00;0.00;0.62;2.10;1.23;;;26.50;31.60;;;;;;2237836;62;20359;-63
2022/08/30 03:04:20;0.00;0.00;0.62;0.00;0.00;0.62;1.60;1.00;;;26.60;31.70;;;;;;2241086;62;20799;-62
2022/08/30 03:07:05;0.00;0.00;0.62;0.00;0.00;0.62;2.03;1.20;;;26.50;31.60;;;;;;2241642;62;20700;-62
2022/08/30 03:09:50;0.00;0.00;0.62;0.00;0.00;0.62;1.83;1.20;;;26.50;31.70;;;;;;2241745;62;20394;-63
2022/08/30 03:12:35;0.00;0.00;0.62;0.00;0.00;0.62;2.10;1.20;;;26.50;31.70;;;;;;2241053;61;20358;-63
2022/08/30 03:15:24;0.00;0.00;0.62;0.00;0.00;0.62;4.90;1.43;;;26.50;31.70;;;;;;2241819;62;20408;-63
2022/08/30 03:18:09;0.00;0.00;0.62;0.00;0.00;0.62;2.00;1.37;;;26.40;31.70;;;;;;2241546;62;20358;-61
2022/08/30 03:20:57;0.00;0.00;0.62;0.00;0.00;0.62;2.07;1.40;;;26.40;31.70;;;;;;2241132;61;20387;-62
2022/08/30 03:23:42;0.00;0.00;0.62;0.00;0.00;0.62;2.40;1.87;;;26.40;31.80;;;;;;2244016;61;20407;-63
2022/08/30 03:26:27;0.00;0.00;0.62;0.00;0.00;0.62;2.77;1.80;;;26.30;31.70;;;;;;2241475;62;20446;-65
2022/08/30 03:29:12;0.00;0.00;0.62;0.00;0.00;0.62;2.47;1.83;;;26.30;31.80;;;;;;2241483;62;20712;-63
2022/08/30 03:31:57;0.00;0.00;0.62;0.00;0.00;0.62;3.17;2.00;;;26.30;31.90;;;;;;2241816;62;20726;-63
2022/08/30 03:34:42;0.00;0.00;0.62;0.00;0.00;0.62;4.80;2.20;;;26.30;31.90;;;;;;2240848;62;20417;-63
2022/08/30 03:37:29;0.00;0.00;0.62;0.00;0.00;0.62;2.93;2.20;;;26.20;31.90;;;;;;2241821;62;20366;-62
2022/08/30 03:40:20;0.00;0.00;0.62;0.00;0.00;0.62;3.23;2.30;;;26.20;32.00;;;;;;2241596;62;20382;-63
2022/08/30 03:43:06;0.00;0.00;0.62;0.00;0.00;0.62;2.17;1.60;;;26.20;32.00;;;;;;2240947;61;20378;-63
2022/08/30 03:45:51;0.00;0.00;0.62;0.00;0.00;0.62;2.97;2.30;;;26.20;32.10;;;;;;2241768;62;20366;-62
2022/08/30 03:48:35;0.00;0.00;0.62;0.00;0.00;0.62;2.10;1.80;;;26.10;32.10;;;;;;2241678;62;20393;-63
2022/08/30 03:51:20;0.00;0.00;0.62;0.00;0.00;0.62;2.73;2.30;;;26.10;32.10;;;;;;2244580;61;20402;-63
2022/08/30 03:54:07;0.00;0.00;0.62;0.00;0.00;0.62;2.73;2.00;;;26.10;32.10;;;;;;2245523;61;20405;-66
2022/08/30 03:56:52;0.00;0.00;0.62;0.00;0.00;0.62;3.30;2.43;;;26.10;32.20;;;;;;2245608;61;20725;-63
2022/08/30 03:59:37;0.00;0.00;0.62;0.00;0.00;0.62;3.20;1.70;;;26.10;32.30;;;;;;2246447;61;20354;-64
2022/08/30 04:02:22;0.00;0.00;0.62;0.00;0.00;0.62;2.03;1.73;;;26.10;32.30;;;;;;2245712;61;20591;-63
2022/08/30 04:05:08;0.00;0.00;0.62;0.00;0.00;0.62;2.90;1.80;;;26.00;32.30;;;;;;2237745;62;20379;-63
2022/08/30 04:07:53;0.00;0.00;0.62;0.00;0.00;0.62;3.33;2.53;;;26.00;32.40;;;;;;2238463;62;20380;-63
2022/08/30 04:10:40;0.00;0.00;0.62;0.00;0.00;0.62;3.13;2.10;;;26.00;32.40;;;;;;2237991;62;20767;-63
2022/08/30 04:13:24;0.00;0.00;0.62;0.00;0.00;0.62;3.13;2.50;;;26.00;32.50;;;;;;2237864;61;20411;-63
2022/08/30 04:16:10;0.00;0.00;0.62;0.00;0.00;0.62;3.30;2.70;;;26.00;32.50;;;;;;2238459;62;20391;-63
2022/08/30 04:18:55;0.00;0.00;0.62;0.00;0.00;0.62;3.63;2.67;;;25.90;32.40;;;;;;2237556;62;20411;-62
2022/08/30 04:21:39;0.00;0.00;0.62;0.00;0.00;0.62;2.93;2.43;;;25.90;33.10;;;;;;2238311;62;20460;-61
2022/08/30 04:24:24;0.00;0.00;0.62;0.00;0.00;0.62;2.20;2.00;;;25.90;32.50;;;;;;2241636;62;20401;-67
2022/08/30 04:27:11;0.00;0.00;0.62;0.00;0.00;0.62;3.00;2.40;;;25.90;32.60;;;;;;2241624;62;20366;-63
2022/08/30 04:29:55;0.00;0.00;0.62;0.00;0.00;0.62;2.97;2.53;;;25.80;32.60;;;;;;2242290;62;20831;-62
2022/08/30 04:32:40;0.00;0.00;0.62;0.00;0.00;0.62;2.30;2.10;;;25.80;32.60;;;;;;2242617;61;20432;-65
2022/08/30 04:35:26;0.00;0.00;0.62;0.00;0.00;0.62;2.30;2.00;;;25.80;32.60;;;;;;2245560;61;20757;-64
2022/08/30 04:38:12;0.00;0.00;0.62;0.00;0.00;0.62;3.13;2.60;;;25.80;32.60;;;;;;2246303;61;20713;-62
2022/08/30 04:40:57;0.00;0.00;0.62;0.00;0.00;0.62;2.60;2.20;;;25.70;32.60;;;;;;2245555;61;20589;-63
2022/08/30 04:43:44;0.00;0.00;0.62;0.00;0.00;0.62;2.53;2.23;;;25.70;32.60;;;;;;2246276;61;20385;-63
2022/08/30 04:46:29;0.00;0.00;0.62;0.00;0.00;0.62;2.37;2.00;;;25.70;32.60;;;;;;2245912;61;20366;-63
2022/08/30 04:49:14;0.00;0.00;0.62;0.00;0.00;0.62;4.30;1.80;;;25.70;32.60;;;;;;2245417;61;20606;-63
2022/08/30 04:51:58;0.00;0.00;0.62;0.00;0.00;0.62;2.00;1.60;;;25.70;32.70;;;;;;2246398;61;20380;-64
2022/08/30 04:54:43;0.00;0.00;0.62;0.00;0.00;0.62;2.90;2.40;;;25.60;32.70;;;;;;2647611;46;20383;-63
2022/08/30 04:57:29;0.00;0.00;0.62;0.00;0.00;0.62;2.80;2.00;;;25.60;32.70;;;;;;2237818;62;20410;-64
2022/08/30 05:00:16;0.00;0.00;0.62;0.00;0.00;0.62;2.40;1.93;;;25.60;32.70;;;;;;2238162;62;20581;-64
2022/08/30 05:03:02;0.00;0.00;0.62;0.00;0.00;0.62;3.00;2.00;;;25.60;32.80;;;;;;2238705;61;20430;-65
2022/08/30 05:05:48;0.00;0.00;0.62;0.00;0.00;0.62;2.33;2.10;;;25.50;32.80;;;;;;2242161;62;20396;-63
2022/08/30 05:08:33;0.00;0.00;0.62;0.00;0.00;0.62;3.53;2.37;;;25.50;32.80;;;;;;2241795;62;20367;-63
2022/08/30 05:11:18;0.00;0.00;0.62;0.00;0.00;0.62;3.00;2.40;;;25.50;32.80;;;;;;2241380;62;20625;-63
2022/08/30 05:14:03;0.00;0.00;0.62;0.00;0.00;0.62;5.20;2.27;;;25.50;32.90;;;;;;2245206;61;20764;-63
2022/08/30 05:16:49;0.00;0.00;0.62;0.00;0.00;0.62;2.30;2.00;;;25.50;32.90;;;;;;2245917;61;20571;-63
2022/08/30 05:19:34;0.00;0.00;0.62;0.00;0.00;0.62;4.37;2.43;;;25.50;32.90;;;;;;2245515;61;20362;-65
2022/08/30 05:22:19;0.00;0.00;0.62;0.00;0.00;0.62;2.40;1.97;;;25.50;33.00;;;;;;2245732;61;20408;-63
2022/08/30 05:25:05;0.00;0.00;0.62;0.00;0.00;0.62;3.67;2.77;;;25.50;33.00;;;;;;2241652;62;20406;-65
2022/08/30 05:27:51;0.00;0.00;0.62;0.00;0.00;0.62;2.77;2.23;;;25.40;33.00;;;;;;2244292;61;20358;-63
2022/08/30 05:30:37;0.00;0.00;0.62;0.00;0.00;0.62;2.60;1.83;;;25.40;33.00;;;;;;2241843;62;20405;-65
2022/08/30 05:33:23;0.00;0.00;0.62;0.00;0.00;0.62;2.90;2.33;;;25.40;33.10;;;;;;2241190;61;20586;-65
2022/08/30 05:36:11;0.00;0.00;0.62;0.00;0.00;0.62;3.23;2.10;;;25.40;33.20;;;;;;2242086;62;20456;-63
2022/08/30 05:38:56;0.00;0.00;0.62;0.00;0.00;0.62;2.37;1.90;;;25.40;33.20;;;;;;2241798;62;20410;-67
2022/08/30 05:41:41;0.00;0.00;0.62;0.00;0.00;0.62;2.80;2.30;;;25.40;33.30;;;;;;2241171;62;20451;-66
2022/08/30 05:44:26;0.00;0.00;0.62;0.00;0.00;0.62;2.63;2.07;;;25.40;33.40;;;;;;2238267;62;20419;-64
2022/08/30 05:47:10;0.00;0.00;0.62;0.00;0.00;0.62;4.10;2.30;;;25.30;33.50;;;;;;2239421;62;20613;-63
2022/08/30 05:49:56;0.00;0.00;0.62;0.00;0.00;0.62;4.50;1.83;;;25.30;33.60;;;;;;2241455;62;20386;-68
2022/08/30 05:52:43;0.00;0.00;0.62;0.00;0.00;0.62;2.33;2.10;;;25.30;33.60;;;;;;2241897;61;20378;-65
2022/08/30 05:55:29;0.00;0.00;0.62;0.00;0.00;0.62;3.10;2.00;;;25.30;33.70;;;;;;2241178;62;20382;-63
2022/08/30 05:58:14;0.00;0.00;0.62;0.00;0.00;0.62;2.37;1.90;;;25.30;33.80;;;;;;2242070;62;20775;-63
2022/08/30 06:00:59;0.00;0.00;0.62;0.00;0.00;0.62;3.27;2.53;;;25.30;33.80;;;;;;2241756;62;20350;-63
2022/08/30 06:03:44;0.00;0.00;0.62;0.00;0.00;0.62;2.77;2.17;;;25.30;34.00;;;;;;2240846;61;20401;-61
2022/08/30 06:06:32;0.00;0.00;0.62;0.00;0.00;0.62;2.10;1.70;;;25.30;34.00;;;;;;2241972;62;20362;-62
2022/08/30 06:09:18;0.00;0.00;0.62;0.00;0.00;0.62;3.03;2.13;;;25.40;34.00;;;;;;2241493;61;20791;-63
2022/08/30 06:12:03;0.00;0.00;0.62;0.00;0.00;0.62;2.40;1.80;;;25.40;34.20;;;;;;2241741;62;20431;-60
2022/08/30 06:14:48;0.00;0.00;0.62;0.00;0.00;0.62;2.73;2.30;;;25.40;34.10;;;;;;2539585;46;20432;-61
2022/08/30 06:17:33;0.00;0.00;0.62;0.00;0.00;0.62;3.67;2.80;;;25.40;34.10;;;;;;2237153;62;20371;-63
2022/08/30 06:20:19;0.00;0.00;0.62;0.00;0.00;0.62;3.03;2.30;;;25.40;34.20;;;;;;2238065;62;20363;-64
2022/08/30 06:23:05;0.00;0.00;0.62;0.00;0.00;0.62;3.17;2.47;;;25.40;34.20;;;;;;2237670;62;20391;-64
2022/08/30 06:25:50;0.00;0.00;0.62;0.00;0.00;0.62;2.80;2.00;;;25.40;34.20;;;;;;2237461;62;20833;-64
2022/08/30 06:28:34;0.00;0.00;0.62;0.00;0.00;0.62;2.23;1.80;;;25.40;34.30;;;;;;2238048;62;20414;-63
2022/08/30 06:31:21;0.00;0.00;0.62;0.00;0.00;0.62;3.13;1.60;;;25.40;34.20;;;;;;2238225;61;20385;-62
2022/08/30 06:34:07;0.00;0.00;0.62;0.00;0.00;0.62;2.30;2.00;;;25.40;34.10;;;;;;2474115;54;20606;-64
2022/08/30 06:36:51;0.00;0.00;0.62;0.00;0.00;0.62;3.17;2.10;;;25.40;34.20;;;;;;2237559;62;20420;-64
2022/08/30 06:39:37;0.00;0.00;0.62;0.00;0.00;0.62;2.80;2.27;;;25.50;34.20;;;;;;2237503;62;20368;-62
2022/08/30 06:42:29;0.00;0.00;0.62;0.00;0.00;0.62;1.90;1.70;;;25.50;34.20;;;;;;2237527;62;20367;-62
2022/08/30 06:45:15;0.00;0.00;0.62;0.00;0.00;0.62;2.37;1.70;;;25.50;34.10;;;;;;2281312;58;20398;-60
2022/08/30 06:48:00;0.00;0.00;0.62;0.00;0.00;0.62;2.80;1.80;;;25.50;34.10;;;;;;2241835;62;20367;-61
2022/08/30 06:50:51;0.00;0.00;0.62;0.00;0.00;0.62;2.37;2.07;;;25.50;34.10;;;;;;2241815;62;20462;-63
2022/08/30 06:53:36;0.00;0.00;0.62;0.00;0.00;0.62;3.27;2.10;;;25.50;34.10;;;;;;2238730;61;20395;-62
2022/08/30 06:56:23;0.00;0.00;0.62;0.00;0.00;0.62;3.07;2.10;;;25.50;34.10;;;;;;2242805;61;20409;-63
2022/08/30 06:59:08;0.00;0.00;0.62;0.00;0.00;0.62;3.30;2.07;;;25.50;34.30;;;;;;2242212;61;20378;-60
2022/08/30 07:01:53;0.00;0.00;0.62;0.00;0.00;0.62;1.90;1.60;;;25.50;34.30;;;;;;2241356;62;20358;-63
2022/08/30 07:04:37;0.00;0.00;0.62;0.00;0.00;0.62;2.80;2.17;;;25.50;34.20;;;;;;2241252;62;20402;-61
2022/08/30 07:07:22;0.00;0.00;0.62;0.00;0.00;0.62;2.00;1.70;;;25.50;34.20;;;;;;2241140;62;20623;-60
2022/08/30 07:10:09;0.00;0.00;0.62;0.00;0.00;0.62;2.70;1.60;;;25.50;34.10;;;;;;2241347;62;20393;-61
2022/08/30 07:12:55;0.00;0.00;0.62;0.00;0.00;0.62;2.30;1.80;;;25.60;34.20;;;;;;2241380;61;20370;-61
2022/08/30 07:15:41;0.00;0.00;0.62;0.00;0.00;0.62;2.13;1.47;;;25.60;34.10;;;;;;2241132;62;20367;-61
2022/08/30 07:21:35;0.00;0.00;0.62;0.00;0.00;0.62;2.67;2.10;;;25.60;34.10;;;;;;2241888;61;20377;-59
2022/08/30 07:24:20;0.00;0.00;0.62;0.00;0.00;0.62;2.47;1.90;;;25.60;34.10;;;;;;2238343;62;20435;-60
2022/08/30 07:27:05;0.00;0.00;0.62;0.00;0.00;0.62;2.97;2.10;;;25.60;34.20;;;;;;2238267;62;20575;-60
2022/08/30 07:29:51;0.00;0.00;0.62;0.00;0.00;0.62;2.30;2.10;;;25.70;34.30;;;;;;2237935;62;20424;-60
2022/08/30 07:32:37;0.00;0.00;0.62;0.00;0.00;0.62;2.43;2.10;;;25.70;34.30;;;;;;2238099;61;20375;-60
2022/08/30 07:35:22;0.00;0.00;0.62;0.00;0.00;0.62;2.93;2.10;;;25.70;34.20;;;;;;2238487;62;20398;-60
2022/08/30 07:38:11;0.00;0.00;0.62;0.00;0.00;0.62;2.80;2.17;;;25.70;34.30;;;;;;2238136;62;20402;-60
2022/08/30 07:40:59;0.00;0.00;0.62;0.00;0.00;0.62;3.13;2.33;;;25.70;34.30;;;;;;2238260;62;20390;-60
2022/08/30 07:43:45;0.00;0.00;0.62;0.00;0.00;0.62;3.47;2.40;;;25.70;34.30;;;;;;2238282;61;20399;-60
2022/08/30 07:46:31;0.00;0.00;0.62;0.00;0.00;0.62;2.87;1.93;;;25.70;34.30;;;;;;2237866;62;20411;-60
2022/08/30 07:49:16;0.00;0.00;0.62;0.00;0.00;0.62;4.03;2.37;;;25.70;34.20;;;;;;2238405;62;20370;-59
2022/08/30 07:52:02;0.00;0.00;0.62;0.00;0.00;0.62;3.00;2.60;;;25.70;34.20;;;;;;2237902;62;20351;-60
2022/08/30 07:54:47;0.00;0.00;0.62;0.00;0.00;0.62;2.73;2.20;;;25.70;34.20;;;;;;2536686;46;20454;-60
2022/08/30 07:57:33;0.00;0.00;0.62;0.00;0.00;0.62;3.43;1.97;;;25.70;34.10;;;;;;2242240;62;20423;-60
2022/08/30 08:00:18;0.00;0.00;0.62;0.00;0.00;0.62;2.20;1.70;;;25.70;34.10;;;;;;2241784;62;20362;-60
2022/08/30 08:03:09;0.00;0.00;0.62;0.00;0.00;0.62;3.80;3.00;;;25.70;34.10;;;;;;2242009;61;20378;-60
2022/08/30 08:05:54;0.00;0.00;0.62;0.00;0.00;0.62;3.53;2.80;;;25.80;34.30;;;;;;2242299;62;20563;-60
2022/08/30 08:08:41;0.00;0.00;0.62;0.00;0.00;0.62;3.30;2.90;;;25.80;34.30;;;;;;2241633;62;20366;-60
2022/08/30 08:11:26;0.00;0.00;0.62;0.00;0.00;0.62;4.00;3.60;;;25.80;34.30;;;;;;2242206;62;20422;-60
2022/08/30 08:14:11;0.00;0.00;0.62;0.00;0.00;0.62;3.00;2.63;;;25.80;34.30;;;;;;2244854;61;21173;-61
2022/08/30 08:16:56;0.00;0.00;0.62;0.00;0.00;0.62;4.00;3.03;;;25.80;34.30;;;;;;2245666;61;20389;-60
2022/08/30 08:19:43;0.00;0.00;0.62;0.00;0.00;0.62;3.90;3.27;;;25.80;34.20;;;;;;2245834;61;20766;-60
2022/08/30 08:22:27;0.00;0.00;0.62;0.00;0.00;0.62;3.57;3.00;;;25.80;34.20;;;;;;2245004;61;20628;-60
2022/08/30 08:25:13;0.00;0.00;0.62;0.00;0.00;0.62;4.00;2.80;;;25.80;34.30;;;;;;2242152;62;20606;-60
2022/08/30 08:27:58;0.00;0.00;0.62;0.00;0.00;0.62;3.17;2.87;;;25.80;34.30;;;;;;2242215;62;20367;-60
2022/08/30 08:30:43;0.00;0.00;0.62;0.00;0.00;0.62;3.73;3.40;;;25.80;34.30;;;;;;2241379;62;20426;-59
2022/08/30 08:33:28;0.00;0.00;0.62;0.00;0.00;0.62;3.63;2.83;;;25.80;34.30;;;;;;2243946;61;20861;-63
2022/08/30 08:36:15;0.00;0.00;0.62;0.00;0.00;0.62;3.40;2.60;;;25.80;34.20;;;;;;2245582;61;20361;-63
2022/08/30 08:39:00;0.00;0.00;0.62;0.00;0.00;0.62;4.40;3.40;;;25.80;34.30;;;;;;2245698;61;20373;-62
2022/08/30 08:41:58;0.00;0.00;0.62;0.00;0.00;0.62;4.43;3.47;;;25.80;34.30;;;;;;2246063;61;20655;-63
2022/08/30 08:44:52;0.00;0.00;0.62;0.00;0.00;0.62;4.20;3.67;;;25.80;34.30;;;;;;2548625;46;20408;-66
2022/08/30 08:47:41;0.00;0.00;0.62;0.00;0.00;0.62;4.43;3.40;;;25.80;34.30;;;;;;2238146;62;20364;-64
2022/08/30 08:50:27;0.00;0.00;0.62;0.00;0.00;0.62;3.10;2.53;;;25.80;34.40;;;;;;2237817;62;20427;-65
2022/08/30 08:53:36;0.00;0.00;0.62;0.00;0.00;0.62;4.73;3.57;;;25.80;34.40;;;;;;2239424;61;20382;-66
2022/08/30 08:56:21;0.00;0.00;0.62;0.00;0.00;0.62;4.17;2.87;;;25.80;34.40;;;;;;2241901;62;20405;-63
2022/08/30 08:59:10;0.00;0.00;0.62;0.00;0.00;0.62;4.93;3.40;;;25.90;34.50;;;;;;2241652;62;20398;-65
2022/08/30 09:01:59;0.00;0.00;0.62;0.00;0.00;0.62;5.67;3.63;;;25.90;34.50;;;;;;2241461;62;20374;-62
2022/08/30 09:04:44;0.00;0.00;0.62;0.00;0.00;0.62;4.80;3.80;;;25.90;34.40;;;;;;2645708;46;20391;-63
2022/08/30 09:07:35;0.00;0.00;0.62;0.00;0.00;0.62;6.60;4.30;;;25.90;34.50;;;;;;2237153;62;20447;-64
2022/08/30 09:10:23;0.00;0.00;0.62;0.00;0.00;0.62;6.30;4.57;;;25.90;34.50;;;;;;2237893;62;20450;-64
2022/08/30 09:13:08;0.00;0.00;0.62;0.00;0.00;0.62;4.93;4.43;;;25.90;34.40;;;;;;2238985;62;20378;-67
2022/08/30 09:15:56;0.00;0.00;0.62;0.00;0.00;0.62;6.03;4.40;;;26.00;34.50;;;;;;2241504;62;20370;-64
2022/08/30 09:18:44;0.00;0.00;0.62;0.00;0.00;0.62;6.13;5.10;;;25.90;34.50;;;;;;2241934;62;20382;-65
2022/08/30 09:21:29;0.00;0.00;0.62;0.00;0.00;0.62;6.80;5.43;;;25.90;34.50;;;;;;2241383;62;20390;-64
2022/08/30 09:24:15;0.00;0.00;0.62;0.00;0.00;0.62;5.97;4.70;;;25.90;34.40;;;;;;2238180;62;20711;-61
2022/08/30 09:27:15;0.00;0.00;0.62;0.00;0.00;0.62;6.93;5.57;;;25.90;34.40;;;;;;2237898;62;20424;-60
2022/08/30 09:30:08;0.00;0.00;0.62;0.00;0.00;0.62;8.57;5.77;;;26.00;34.40;;;;;;2237497;62;20388;-60
2022/08/30 09:32:56;0.00;0.00;0.62;0.00;0.00;0.62;6.03;5.23;;;26.00;34.40;;;;;;2238744;61;20399;-60
2022/08/30 09:35:45;0.00;0.00;0.62;0.00;0.00;0.62;7.53;5.97;;;26.00;34.40;;;;;;2241563;62;20394;-62
2022/08/30 09:38:32;0.00;0.00;0.62;0.00;0.00;0.62;5.70;5.10;;;26.00;34.30;;;;;;2241628;62;20405;-62
2022/08/30 09:41:35;0.00;0.00;0.62;0.00;0.00;0.62;8.00;4.90;;;26.00;34.30;;;;;;2241911;62;20394;-62
2022/08/30 09:44:28;0.00;0.00;0.62;0.00;0.00;0.62;5.33;4.20;;;26.00;34.40;;;;;;2237540;62;20394;-62
2022/08/30 09:47:20;0.00;0.00;0.62;0.00;0.00;0.62;5.30;4.53;;;26.00;34.40;;;;;;2238035;62;20492;-63
2022/08/30 09:50:09;0.00;0.00;0.62;0.00;0.00;0.62;3.40;3.10;;;26.00;34.40;;;;;;2237529;62;20427;-62
2022/08/30 09:53:09;0.00;0.00;0.62;0.00;0.00;0.62;4.57;3.83;;;26.00;34.40;;;;;;2240836;61;20370;-63
2022/08/30 09:56:05;0.00;0.00;0.62;0.00;0.00;0.62;3.67;3.37;;;26.00;34.40;;;;;;2241559;62;20698;-64
2022/08/30 09:59:04;0.00;0.00;0.62;0.00;0.00;0.62;4.27;3.53;;;25.90;34.40;;;;;;2241315;62;20362;-61
2022/08/30 10:01:58;0.00;0.00;0.62;0.00;0.00;0.62;3.77;3.37;;;26.00;34.60;;;;;;2241700;62;20382;-63
2022/08/30 10:04:55;0.00;0.00;0.62;0.00;0.00;0.62;2.80;2.50;;;25.90;34.60;;;;;;2468030;54;20387;-62
2022/08/30 10:07:49;0.00;0.00;0.62;0.00;0.00;0.62;3.20;2.90;;;25.90;34.60;;;;;;2237371;62;20371;-63
2022/08/30 10:10:45;0.00;0.00;0.62;0.00;0.00;0.62;3.40;3.10;;;25.90;34.70;;;;;;2237809;62;20393;-64
2022/08/30 10:14:03;0.00;0.00;0.62;0.00;0.00;0.62;3.80;3.20;;;25.90;34.80;;;;;;2241409;61;20449;-61
2022/08/30 10:16:59;0.00;0.00;0.62;0.00;0.00;0.62;3.50;3.20;;;25.90;34.80;;;;;;2245175;61;20357;-61
2022/08/30 10:20:06;0.00;0.00;0.62;0.00;0.00;0.62;3.00;1.90;;;25.90;34.70;;;;;;2245285;61;20404;-62
2022/08/30 10:22:59;0.00;0.00;0.62;0.00;0.00;0.62;2.30;2.10;;;25.80;34.60;;;;;;2244033;61;20410;-62
2022/08/30 10:25:49;0.00;0.00;0.62;0.00;0.00;0.62;3.07;2.10;;;25.90;34.70;;;;;;2241738;62;20588;-62
2022/08/30 10:28:40;0.00;0.00;0.62;0.00;0.00;0.62;2.40;2.10;;;25.90;34.70;;;;;;2240878;62;20379;-63
2022/08/30 10:31:30;0.00;0.00;0.62;0.00;0.00;0.62;7.30;3.13;;;25.90;34.60;;;;;;2241688;62;20398;-62
2022/08/30 10:34:23;0.00;0.00;0.62;0.00;0.00;0.62;5.80;2.70;;;25.90;35.20;;;;;;2241286;62;20394;-68
2022/08/30 10:37:13;0.00;0.00;0.62;0.00;0.00;0.62;3.33;2.67;;;25.90;35.40;;;;;;2241282;62;20729;-67
2022/08/30 10:41:11;0.00;0.00;0.62;0.00;0.00;0.62;2.60;2.40;;;25.90;35.40;;;;;;2241867;62;20718;-65
2022/08/30 10:43:19;0.00;0.00;0.62;0.00;0.00;0.62;2.40;1.90;;;25.90;35.40;;;;;;2241119;61;20375;-65
2022/08/30 10:46:10;0.00;0.00;0.62;0.00;0.00;0.62;2.30;2.10;;;25.90;35.30;;;;;;2241602;62;20370;-65
2022/08/30 10:48:57;0.00;0.00;0.62;0.00;0.00;0.62;2.03;1.70;;;25.80;35.20;;;;;;2241561;62;20414;-65
2022/08/30 10:51:51;0.00;0.00;0.62;0.00;0.00;0.62;2.20;1.90;;;25.80;35.20;;;;;;2241395;62;20359;-66
2022/08/30 10:54:45;0.00;0.00;0.62;0.00;0.00;0.62;2.03;1.83;;;25.80;35.20;;;;;;2241602;62;20398;-62
2022/08/30 10:57:30;0.00;0.00;0.62;0.00;0.00;0.62;2.13;1.93;;;25.80;35.30;;;;;;2241290;62;20370;-62
2022/08/30 11:00:23;0.00;0.00;0.62;0.00;0.00;0.62;3.30;2.10;;;25.90;35.30;;;;;;2241417;62;20611;-62
2022/08/30 11:03:51;0.00;0.00;0.62;0.00;0.00;0.62;2.43;2.10;;;25.90;35.40;;;;;;2241655;61;20463;-62